Terminal Aerodrome Forecast
Issued by NWS

Home | Current Version | Previous Version | Text Only | Print | Product List | Glossary Off
Versions: 1 2 3 4 5 6 7 8 9 10 11 12 13 14

892
FTUS42 KMHX 201140
TAFOAJ
TAF
KOAJ 201140Z 2012/2112 VRB02KT 3SM BR BKN001
      TEMPO 2012/2013 2SM BR BKN001
     FM201330 01005KT P6SM SCT050
     FM201800 01005KT P6SM VCTS SCT050CB
     FM210100 VRB03KT P6SM FEW050 SCT250
     FM210900 VRB03KT 3SM BR SKC
      AMD LTD TO CLD VIS AND WIND=

USA.gov is the U.S. government's official web portal to all federal, state and local government web resources and services.